Time;durP1;ratioP1;P1;durP2;ratioP2;P2;SDS_P1;SDS_P2;PMS_P1;PMS_P2;Temp;Humidity;BMP_temperature;BMP_pressure;BME280_temperature;BME280_humidity;BME280_pressure;Samples;Min_cycle;Max_cycle;Signal;HPM_P1;HPM_P2
2022/05/07 00:00:32;;;;;;;19.40;13.93;;;11.80;99.90;;;;;;4754956;30;20212;-64
2022/05/07 00:02:58;;;;;;;18.15;13.63;;;11.70;99.90;;;;;;4753654;30;20125;-64
2022/05/07 00:05:24;;;;;;;17.90;13.07;;;;;;;;;;4754737;30;20056;-64
2022/05/07 00:07:51;;;;;;;20.00;14.20;;;12.10;99.90;;;;;;4739020;30;20063;-65
2022/05/07 00:10:18;;;;;;;17.90;14.50;;;12.00;99.90;;;;;;4738783;30;20048;-65
2022/05/07 00:12:43;;;;;;;17.33;14.05;;;11.80;99.90;;;;;;4754943;30;20052;-65
2022/05/07 00:15:09;;;;;;;20.38;13.75;;;11.90;99.90;;;;;;4754791;30;20071;-65
2022/05/07 00:20:20;;;;;;;21.30;14.35;;;12.00;99.90;;;;;;4754853;30;20051;-64
2022/05/07 00:22:46;;;;;;;18.15;13.85;;;;;;;;;;4754706;30;20551;-65
2022/05/07 00:25:12;;;;;;;19.70;14.88;;;12.00;99.90;;;;;;4753560;30;20131;-64
2022/05/07 00:27:38;;;;;;;20.75;15.50;;;11.80;99.90;;;;;;4754735;30;20460;-65
2022/05/07 00:30:05;;;;;;;22.83;16.73;;;12.00;99.90;;;;;;4754602;30;20056;-64
2022/05/07 00:32:30;;;;;;;25.15;16.70;;;12.00;99.90;;;;;;4754330;30;20139;-65
2022/05/07 00:34:56;;;;;;;25.40;17.80;;;;;;;;;;4754317;30;20478;-64
2022/05/07 00:37:23;;;;;;;23.42;18.77;;;11.90;99.90;;;;;;4738571;30;20117;-65
2022/05/07 00:39:49;;;;;;;25.00;19.95;;;11.90;99.90;;;;;;4754469;30;20517;-64
2022/05/07 00:42:15;;;;;;;27.05;20.52;;;12.30;99.90;;;;;;4754165;30;20064;-65
2022/05/07 00:44:41;;;;;;;27.38;20.02;;;12.00;99.90;;;;;;4753881;30;20056;-64
2022/05/07 00:47:26;;;;;;;24.92;20.13;;;12.00;99.90;;;;;;4754173;30;20135;-65
2022/05/07 00:51:33;;;;;;;23.40;20.30;;;11.90;99.90;;;;;;4753992;30;20052;-64
2022/05/07 00:52:46;;;;;;;23.90;19.48;;;12.10;99.90;;;;;;4753939;30;20086;-65
2022/05/07 00:55:13;;;;;;;24.48;19.73;;;11.90;99.90;;;;;;4753895;30;20066;-64
2022/05/07 00:57:39;;;;;;;24.75;17.23;;;12.10;99.90;;;;;;4754043;30;20135;-64
2022/05/07 01:00:07;;;;;;;21.70;16.00;;;12.10;99.90;;;;;;4816920;24;20642;-58
2022/05/07 01:02:33;;;;;;;18.15;15.20;;;12.20;99.90;;;;;;4754294;30;20113;-58
2022/05/07 01:04:58;;;;;;;22.73;15.57;;;11.60;99.90;;;;;;4754116;30;20056;-57
2022/05/07 01:07:24;;;;;;;22.42;16.35;;;12.00;99.90;;;;;;4754155;30;20374;-59
2022/05/07 01:09:50;;;;;;;18.08;16.17;;;12.00;99.90;;;;;;4754140;30;20052;-59
2022/05/07 01:12:17;;;;;;;23.08;16.42;;;12.10;99.90;;;;;;4754357;30;20052;-58
2022/05/07 01:14:43;;;;;;;24.20;18.48;;;12.00;99.90;;;;;;4754067;30;20191;-58
2022/05/07 01:17:09;;;;;;;23.88;17.27;;;12.20;99.90;;;;;;4753730;30;20540;-58
2022/05/07 01:19:35;;;;;;;21.90;17.58;;;12.10;99.90;;;;;;4753937;30;20056;-57
2022/05/07 01:22:04;;;;;;;23.08;17.55;;;12.20;99.90;;;;;;4753902;30;20118;-58
2022/05/07 01:24:30;;;;;;;20.90;16.20;;;12.10;99.90;;;;;;4753804;30;20139;-58
2022/05/07 01:26:56;;;;;;;21.00;17.23;;;12.20;99.90;;;;;;4752348;30;20084;-58
2022/05/07 01:29:21;;;;;;;21.45;16.88;;;11.90;99.90;;;;;;4753807;30;20048;-58
2022/05/07 01:31:47;;;;;;;23.65;17.77;;;;;;;;;;4753495;30;20091;-58
2022/05/07 01:34:13;;;;;;;24.27;18.27;;;12.30;99.90;;;;;;4753675;30;20143;-57
2022/05/07 01:36:39;;;;;;;24.27;17.60;;;12.30;99.90;;;;;;4752222;30;20139;-58
2022/05/07 01:39:05;;;;;;;22.13;18.00;;;12.10;99.90;;;;;;4738293;30;20059;-53
2022/05/07 01:41:31;;;;;;;22.88;17.88;;;;;;;;;;4753577;30;20501;-54
2022/05/07 01:43:58;;;;;;;23.88;19.05;;;12.20;99.90;;;;;;4737560;30;20052;-55
2022/05/07 01:49:08;;;;;;;25.67;21.55;;;12.70;99.90;;;;;;4753505;30;20084;-55
2022/05/07 01:51:34;;;;;;;29.02;21.65;;;12.40;99.90;;;;;;4753115;30;20048;-53
2022/05/07 01:54:00;;;;;;;30.27;22.15;;;12.20;99.90;;;;;;4753097;30;20563;-52
2022/05/07 01:56:26;;;;;;;29.23;20.92;;;12.30;99.90;;;;;;4752528;30;20138;-54
2022/05/07 01:58:51;;;;;;;30.10;20.88;;;12.20;99.90;;;;;;4737412;30;20071;-54
2022/05/07 02:01:18;;;;;;;26.80;21.90;;;;;;;;;;4752771;30;20106;-54
2022/05/07 02:03:44;;;;;;;27.55;21.85;;;;;;;;;;4753181;30;20114;-53
2022/05/07 02:06:09;;;;;;;26.15;22.02;;;12.20;99.90;;;;;;4753240;30;20455;-56
2022/05/07 02:08:35;;;;;;;27.63;21.92;;;12.40;99.90;;;;;;4752903;30;20048;-54
2022/05/07 02:11:02;;;;;;;25.20;21.42;;;12.60;99.90;;;;;;4753171;30;20052;-54
2022/05/07 02:13:28;;;;;;;31.65;23.30;;;12.30;99.90;;;;;;4753164;30;20133;-53
2022/05/07 02:15:54;;;;;;;28.67;23.42;;;12.50;99.90;;;;;;4752826;30;20059;-53
2022/05/07 02:18:21;;;;;;;30.77;23.05;;;12.30;99.90;;;;;;4753047;30;20055;-54
2022/05/07 02:20:47;;;;;;;29.15;23.02;;;12.20;99.90;;;;;;4753028;30;20109;-56
2022/05/07 02:23:12;;;;;;;30.10;23.33;;;12.30;99.90;;;;;;4753021;30;20127;-54
2022/05/07 02:25:38;;;;;;;30.73;23.77;;;12.30;99.90;;;;;;4752929;30;20052;-53
2022/05/07 02:28:05;;;;;;;28.88;24.30;;;12.70;99.90;;;;;;4736894;30;20052;-54
2022/05/07 02:30:30;;;;;;;30.13;24.17;;;12.30;99.90;;;;;;4752984;30;20080;-54
2022/05/07 02:32:56;;;;;;;29.52;23.80;;;12.40;99.90;;;;;;4752652;30;20211;-54
2022/05/07 02:35:22;;;;;;;29.08;23.92;;;12.30;99.90;;;;;;4752648;30;20535;-54
2022/05/07 02:37:48;;;;;;;27.13;22.80;;;12.40;99.90;;;;;;4752929;30;20098;-53
2022/05/07 02:40:13;;;;;;;27.42;23.20;;;12.30;99.90;;;;;;4752890;30;20054;-54
2022/05/07 02:42:42;;;;;;;27.38;22.90;;;12.30;99.90;;;;;;4752871;30;20141;-53
2022/05/07 02:45:09;;;;;;;30.00;23.50;;;12.40;99.90;;;;;;4752780;30;20409;-53
2022/05/07 02:47:40;;;;;;;28.50;23.67;;;12.40;99.90;;;;;;4752811;30;20048;-54
2022/05/07 02:50:08;;;;;;;27.88;23.20;;;12.40;99.90;;;;;;4752550;30;20060;-53
2022/05/07 02:52:34;;;;;;;31.38;24.83;;;12.40;99.90;;;;;;4752814;30;20055;-53
2022/05/07 02:55:01;;;;;;;31.65;24.08;;;12.40;99.90;;;;;;4752782;30;20060;-53
2022/05/07 02:57:27;;;;;;;32.40;23.88;;;12.50;99.90;;;;;;4752530;30;20061;-54
2022/05/07 02:59:53;;;;;;;30.55;25.00;;;12.50;99.90;;;;;;4752744;30;20459;-53
2022/05/07 03:02:19;;;;;;;29.10;24.45;;;12.50;99.90;;;;;;4752360;30;20091;-54
2022/05/07 03:04:47;;;;;;;29.35;24.83;;;;;;;;;;4752393;30;20056;-54
2022/05/07 03:07:13;;;;;;;31.63;26.17;;;12.40;99.90;;;;;;4738736;30;20048;-53
2022/05/07 03:09:39;;;;;;;32.78;25.85;;;12.60;99.90;;;;;;4756142;30;20052;-53
2022/05/07 03:12:05;;;;;;;31.42;25.63;;;12.70;99.90;;;;;;4756126;30;20454;-54
2022/05/07 03:14:32;;;;;;;35.95;25.80;;;12.50;99.90;;;;;;4756364;30;20052;-53
2022/05/07 03:16:58;;;;;;;35.58;25.45;;;12.60;99.90;;;;;;4755737;30;20135;-54
2022/05/07 03:19:24;;;;;;;33.50;26.52;;;12.50;99.90;;;;;;4755987;30;20417;-54
2022/05/07 03:21:50;;;;;;;34.50;25.00;;;13.10;99.90;;;;;;4755656;30;20052;-53
2022/05/07 03:24:16;;;;;;;32.38;26.27;;;12.70;99.90;;;;;;4754497;30;20121;-54
2022/05/07 03:26:41;;;;;;;34.42;26.73;;;12.50;99.90;;;;;;4755893;30;20052;-54
2022/05/07 03:29:07;;;;;;;32.38;25.73;;;12.40;99.90;;;;;;4755567;30;20177;-53
2022/05/07 03:31:33;;;;;;;34.95;25.95;;;12.40;99.90;;;;;;4755769;30;20047;-53
2022/05/07 03:33:59;;;;;;;35.40;25.83;;;12.30;99.90;;;;;;4754274;30;20493;-54
2022/05/07 03:36:24;;;;;;;29.92;25.58;;;12.30;99.90;;;;;;4755694;30;20058;-54
2022/05/07 03:38:50;;;;;;;31.90;25.58;;;13.20;99.90;;;;;;4755680;30;20044;-54
2022/05/07 03:41:16;;;;;;;32.55;25.25;;;12.00;99.90;;;;;;4739697;30;20064;-53
2022/05/07 03:43:41;;;;;;;34.25;25.80;;;12.60;99.90;;;;;;4754114;30;20068;-55
2022/05/07 03:46:10;;;;;;;29.85;24.88;;;12.40;99.90;;;;;;4755516;30;20052;-54
2022/05/07 03:48:36;;;;;;;33.15;26.50;;;12.20;99.90;;;;;;4755493;30;20110;-54
2022/05/07 03:51:02;;;;;;;33.90;26.50;;;12.50;99.90;;;;;;4754011;30;20501;-54
2022/05/07 03:53:31;;;;;;;34.25;26.88;;;12.50;99.90;;;;;;4755436;30;20123;-52
2022/05/07 03:56:04;;;;;;;32.92;26.42;;;12.40;99.90;;;;;;4755109;30;20131;-54
2022/05/07 03:58:30;;;;;;;36.17;27.25;;;;;;;;;;4739241;30;20501;-54
2022/05/07 04:00:58;;;;;;;37.28;27.70;;;12.50;99.90;;;;;;4755035;30;20056;-54
2022/05/07 04:03:24;;;;;;;35.53;28.25;;;12.40;99.90;;;;;;4753684;30;20067;-54
2022/05/07 04:05:50;;;;;;;39.20;28.73;;;12.50;99.90;;;;;;4754810;30;20550;-52
2022/05/07 04:08:16;;;;;;;38.03;29.10;;;12.30;99.90;;;;;;4754755;30;20084;-53
2022/05/07 04:10:42;;;;;;;35.92;28.27;;;;;;;;;;4755038;30;20114;-54
2022/05/07 04:13:10;;;;;;;36.55;28.20;;;12.40;99.90;;;;;;4754996;30;20139;-54
2022/05/07 04:15:36;;;;;;;36.35;27.38;;;12.50;99.90;;;;;;4738796;30;20113;-54
2022/05/07 04:18:03;;;;;;;35.20;27.88;;;12.60;99.90;;;;;;4753415;30;20520;-54
2022/05/07 04:20:29;;;;;;;36.88;28.13;;;12.50;99.90;;;;;;4754117;30;20048;-54
2022/05/07 04:22:55;;;;;;;40.28;28.67;;;12.30;99.90;;;;;;4754818;30;20056;-53
2022/05/07 04:25:20;;;;;;;34.85;28.25;;;12.40;99.90;;;;;;4754504;30;20052;-58
2022/05/07 04:27:46;;;;;;;38.42;27.40;;;;;;;;;;4754762;30;20131;-58
2022/05/07 04:30:12;;;;;;;37.83;28.17;;;12.60;99.90;;;;;;4754719;30;20139;-58
2022/05/07 04:32:38;;;;;;;37.25;27.70;;;;;;;;;;4754380;30;20144;-58
2022/05/07 04:35:06;;;;;;;38.25;28.48;;;12.70;99.90;;;;;;4754652;30;20067;-58
2022/05/07 04:37:32;;;;;;;36.35;26.70;;;12.40;99.90;;;;;;4754600;30;20125;-58
2022/05/07 04:39:57;;;;;;;34.35;28.13;;;12.60;99.90;;;;;;4754538;30;20048;-58
2022/05/07 04:42:23;;;;;;;39.20;28.02;;;12.80;99.90;;;;;;4754287;30;20133;-58
2022/05/07 04:44:48;;;;;;;37.70;26.77;;;12.20;99.90;;;;;;4754503;30;20143;-57
2022/05/07 04:47:14;;;;;;;31.60;27.13;;;;;;;;;;4754491;30;20420;-57
2022/05/07 04:49:40;;;;;;;35.63;27.50;;;13.30;99.90;;;;;;4754163;30;20518;-58
2022/05/07 04:52:06;;;;;;;34.33;27.77;;;13.00;99.90;;;;;;4790954;24;20059;-66
2022/05/07 04:54:32;;;;;;;32.47;27.00;;;12.90;99.90;;;;;;4755055;30;20067;-66
2022/05/07 04:56:58;;;;;;;30.35;24.92;;;13.40;99.90;;;;;;4770870;30;20060;-67
2022/05/07 04:59:25;;;;;;;33.30;27.00;;;13.70;99.90;;;;;;4754464;30;20075;-66
2022/05/07 05:01:50;;;;;;;32.25;25.08;;;13.40;99.90;;;;;;4770576;30;20505;-65
2022/05/07 05:04:16;;;;;;;31.45;25.80;;;13.30;99.90;;;;;;4770778;30;20056;-66
2022/05/07 05:06:43;;;;;;;35.35;25.48;;;;;;;;;;4754726;30;20055;-66
2022/05/07 05:09:09;;;;;;;33.13;25.48;;;13.20;99.90;;;;;;4770382;30;20488;-65
2022/05/07 05:11:35;;;;;;;31.92;25.52;;;13.10;99.90;;;;;;4770520;30;20087;-65
2022/05/07 05:14:01;;;;;;;27.63;24.63;;;12.80;99.90;;;;;;4770432;30;20052;-67
2022/05/07 05:16:27;;;;;;;32.42;25.45;;;13.50;99.90;;;;;;4754440;30;20083;-65
2022/05/07 05:18:53;;;;;;;30.98;25.42;;;13.60;99.90;;;;;;4770710;30;20079;-65
2022/05/07 05:21:19;;;;;;;35.63;25.50;;;13.60;99.90;;;;;;4739736;30;20063;-65
2022/05/07 05:23:48;;;;;;;28.50;24.85;;;13.20;99.90;;;;;;4754595;30;20129;-66
2022/05/07 05:26:14;;;;;;;32.08;26.23;;;13.70;99.90;;;;;;4754748;30;20125;-66
2022/05/07 05:28:40;;;;;;;30.92;24.73;;;13.80;99.90;;;;;;4769785;30;20048;-65
2022/05/07 05:31:06;;;;;;;30.70;25.85;;;13.90;99.90;;;;;;4753344;30;20054;-66
2022/05/07 05:33:32;;;;;;;31.33;25.80;;;13.60;99.90;;;;;;4754132;30;20051;-66
2022/05/07 05:35:58;;;;;;;34.17;25.50;;;13.60;99.90;;;;;;4754634;30;20155;-65
2022/05/07 05:38:24;;;;;;;34.22;26.05;;;13.70;99.90;;;;;;4769919;30;20074;-65
2022/05/07 05:40:50;;;;;;;37.65;25.67;;;13.80;99.90;;;;;;4770258;30;20121;-65
2022/05/07 05:43:17;;;;;;;35.72;25.60;;;13.70;99.90;;;;;;4769599;30;20059;-65
2022/05/07 05:45:43;;;;;;;33.35;25.25;;;13.50;99.90;;;;;;4754036;30;20052;-65
2022/05/07 05:48:09;;;;;;;55.97;25.00;;;14.30;99.90;;;;;;4769930;30;20058;-65
2022/05/07 05:50:35;;;;;;;32.58;26.00;;;13.80;99.90;;;;;;4769744;30;20420;-66
2022/05/07 05:53:01;;;;;;;31.15;25.05;;;13.90;99.90;;;;;;4753893;30;20059;-66
2022/05/07 05:55:27;;;;;;;31.25;24.92;;;14.00;99.90;;;;;;4753910;30;20059;-65
2022/05/07 05:57:53;;;;;;;32.47;25.38;;;14.00;99.90;;;;;;4769384;30;20168;-65
2022/05/07 06:00:19;;;;;;;30.90;24.02;;;14.00;99.90;;;;;;4754220;30;20056;-66
2022/05/07 06:02:45;;;;;;;30.80;24.63;;;;;;;;;;4739051;30;20072;-65
2022/05/07 06:05:11;;;;;;;26.83;23.77;;;13.90;99.90;;;;;;4753923;30;20059;-65
2022/05/07 06:07:37;;;;;;;30.13;24.73;;;13.70;99.90;;;;;;4769326;30;20059;-66
2022/05/07 06:10:04;;;;;;;31.33;23.48;;;13.80;99.90;;;;;;4753641;30;20062;-65
2022/05/07 06:12:30;;;;;;;30.92;24.58;;;14.00;99.90;;;;;;4769197;30;20055;-66
2022/05/07 06:14:56;;;;;;;31.23;23.10;;;;;;;;;;4753842;30;20424;-65
2022/05/07 06:17:23;;;;;;;35.75;24.15;;;14.00;99.90;;;;;;4769490;30;20561;-65
2022/05/07 06:19:49;;;;;;;28.48;22.67;;;14.00;99.90;;;;;;4768257;30;20563;-65
2022/05/07 06:22:15;;;;;;;27.67;22.05;;;14.60;99.90;;;;;;4769654;30;20102;-65
2022/05/07 06:27:28;;;;;;;25.88;21.45;;;;;;;;;;4767919;30;20129;-66
2022/05/07 06:30:04;;;;;;;36.90;21.50;;;14.60;99.90;;;;;;4769836;30;20055;-66
2022/05/07 06:32:37;;;;;;;31.50;19.55;;;14.90;99.90;;;;;;4769281;30;20528;-65
2022/05/07 06:35:04;;;;;;;21.83;18.25;;;15.40;99.90;;;;;;4754050;30;20087;-66
2022/05/07 06:37:34;;;;;;;26.52;17.77;;;16.00;99.90;;;;;;4767973;30;20056;-65
2022/05/07 06:40:02;;;;;;;21.85;17.15;;;16.20;99.90;;;;;;4753236;30;20059;-65
2022/05/07 06:42:29;;;;;;;25.00;18.65;;;;;;;;;;4771284;30;20059;-66
2022/05/07 06:44:54;;;;;;;28.17;18.77;;;16.80;99.90;;;;;;4756938;30;20070;-66
2022/05/07 06:47:20;;;;;;;24.90;18.65;;;;;;;;;;4773098;30;20130;-66
2022/05/07 06:49:47;;;;;;;28.20;20.27;;;;;;;;;;4773582;30;20059;-65
2022/05/07 06:52:12;;;;;;;26.75;20.08;;;17.00;99.90;;;;;;4771057;30;20062;-65
2022/05/07 06:54:38;;;;;;;29.13;19.92;;;17.20;99.90;;;;;;4772212;30;20138;-65
2022/05/07 06:57:04;;;;;;;31.02;20.08;;;17.10;99.90;;;;;;4787567;30;20108;-65
2022/05/07 06:59:30;;;;;;;34.53;20.50;;;16.80;99.90;;;;;;4790842;29;20097;-65
2022/05/07 07:01:57;;;;;;;30.95;20.98;;;17.50;99.90;;;;;;4790947;29;20153;-65
2022/05/07 07:04:24;;;;;;;34.78;20.88;;;17.30;99.90;;;;;;4784695;29;20091;-65
2022/05/07 07:06:50;;;;;;;32.90;20.27;;;17.20;99.90;;;;;;4759508;30;20051;-66
2022/05/07 07:09:16;;;;;;;32.25;20.08;;;;;;;;;;4771123;30;20112;-66
2022/05/07 07:11:42;;;;;;;27.88;19.38;;;16.90;99.90;;;;;;4770306;30;20094;-66
2022/05/07 07:14:07;;;;;;;29.98;20.00;;;16.80;99.90;;;;;;4770450;30;20082;-65
2022/05/07 07:16:33;;;;;;;26.55;19.45;;;17.10;99.90;;;;;;4770939;29;20052;-65
2022/05/07 07:18:59;;;;;;;30.83;19.40;;;17.60;99.90;;;;;;4770496;30;20085;-66
2022/05/07 07:21:25;;;;;;;27.88;20.00;;;17.60;99.90;;;;;;4770512;29;20385;-65
2022/05/07 07:23:50;;;;;;;27.50;19.77;;;17.40;99.90;;;;;;4771485;30;20059;-66
2022/05/07 07:26:16;;;;;;;24.20;19.90;;;;;;;;;;4769998;30;20068;-66
2022/05/07 07:28:42;;;;;;;27.02;19.73;;;17.90;99.90;;;;;;4770449;30;20442;-66
2022/05/07 07:31:11;;;;;;;26.60;19.15;;;18.40;99.90;;;;;;4770536;30;20083;-66
2022/05/07 07:33:39;;;;;;;29.67;19.10;;;19.00;99.90;;;;;;4770036;30;20052;-65
2022/05/07 07:36:09;;;;;;;27.65;18.92;;;19.90;99.90;;;;;;4772505;29;20044;-65
2022/05/07 07:38:37;;;;;;;27.13;18.65;;;19.90;99.90;;;;;;4779256;30;20111;-66
2022/05/07 07:41:02;;;;;;;31.40;19.38;;;19.90;99.90;;;;;;4773239;29;20134;-66
2022/05/07 07:43:29;;;;;;;25.08;17.80;;;19.20;99.90;;;;;;4769643;30;20556;-65
2022/05/07 07:48:39;;;;;;;26.83;18.77;;;18.90;99.90;;;;;;4770839;30;20121;-65
2022/05/07 07:51:06;;;;;;;29.67;19.48;;;19.50;99.90;;;;;;4769304;30;20055;-67
2022/05/07 07:53:32;;;;;;;30.92;19.23;;;19.40;99.90;;;;;;4782885;29;20485;-66
2022/05/07 07:55:58;;;;;;;24.10;20.60;;;18.90;99.90;;;;;;4769931;30;20116;-67
2022/05/07 07:58:24;;;;;;;24.10;19.30;;;18.80;99.90;;;;;;4770374;29;20481;-66
2022/05/07 08:00:50;;;;;;;30.70;20.35;;;;;;;;;;4771251;30;20078;-67
2022/05/07 08:03:18;;;;;;;29.88;20.20;;;19.10;99.90;;;;;;4769060;30;20476;-67
2022/05/07 08:05:46;;;;;;;28.60;20.42;;;18.50;99.90;;;;;;4770446;30;20108;-66
2022/05/07 08:13:44;;;;;;;32.28;21.10;;;19.40;99.90;;;;;;4770386;29;20051;-67
2022/05/07 08:16:11;;;;;;;26.90;19.58;;;19.20;99.90;;;;;;4769503;30;20514;-66
2022/05/07 08:18:37;;;;;;;24.42;19.58;;;19.60;99.90;;;;;;4768761;30;20064;-67
2022/05/07 08:21:05;;;;;;;26.08;20.33;;;19.60;99.90;;;;;;4769005;30;20066;-68
2022/05/07 08:23:31;;;;;;;27.92;20.38;;;;;;;;;;4753498;30;20139;-67
2022/05/07 08:25:56;;;;;;;24.20;19.35;;;19.30;99.90;;;;;;4769590;30;20134;-68
2022/05/07 08:28:24;;;;;;;24.23;19.55;;;;;;;;;;4769568;29;20477;-68
2022/05/07 08:30:50;;;;;;;28.70;20.48;;;19.80;99.90;;;;;;4770707;30;20136;-68
2022/05/07 08:33:19;;;;;;;28.13;20.17;;;19.40;99.90;;;;;;4769859;29;20379;-69
2022/05/07 08:35:46;;;;;;;27.85;19.80;;;19.80;99.90;;;;;;4769819;30;20051;-68
2022/05/07 08:38:12;;;;;;;28.63;17.52;;;19.80;99.90;;;;;;4769644;29;20420;-67
2022/05/07 08:40:40;;;;;;;21.92;17.33;;;19.90;99.90;;;;;;4770086;30;20113;-68
2022/05/07 08:43:06;;;;;;;29.55;16.75;;;20.50;99.90;;;;;;4770423;29;20480;-67
2022/05/07 08:45:32;;;;;;;22.95;16.40;;;20.80;99.90;;;;;;4769833;30;20051;-67
2022/05/07 08:47:59;;;;;;;24.27;17.50;;;20.70;99.90;;;;;;4769117;30;20457;-67
2022/05/07 08:50:26;;;;;;;27.17;17.42;;;20.80;99.90;;;;;;4770254;29;20505;-67
2022/05/07 08:52:55;;;;;;;25.65;16.33;;;20.90;99.90;;;;;;4788366;30;20079;-67
2022/05/07 08:55:21;;;;;;;22.65;15.68;;;20.70;97.00;;;;;;4786671;30;20051;-67
2022/05/07 08:57:50;;;;;;;24.48;15.00;;;21.30;97.00;;;;;;4783604;30;20063;-67
2022/05/07 09:00:21;;;;;;;30.83;16.38;;;21.60;99.40;;;;;;4771064;30;20067;-68
2022/05/07 09:02:55;;;;;;;18.55;13.73;;;22.00;97.90;;;;;;4770484;30;20056;-67
2022/05/07 09:05:30;;;;;;;22.57;15.00;;;21.90;90.00;;;;;;4753521;30;20060;-67
2022/05/07 09:07:58;;;;;;;21.65;14.77;;;22.30;91.80;;;;;;4741740;30;20854;-67
2022/05/07 09:10:29;;;;;;;19.67;14.98;;;22.40;85.30;;;;;;4751584;30;20048;-67
2022/05/07 09:13:10;;;;;;;24.95;14.10;;;22.60;94.10;;;;;;4752976;30;20071;-67
2022/05/07 09:15:37;;;;;;;19.00;13.85;;;22.60;85.10;;;;;;4736734;30;20067;-67
2022/05/07 09:18:13;;;;;;;24.08;12.80;;;22.10;92.60;;;;;;4735998;30;20191;-67
2022/05/07 09:20:39;;;;;;;24.48;13.50;;;;;;;;;;4752448;30;20056;-68
2022/05/07 09:23:05;;;;;;;25.15;14.40;;;22.40;92.20;;;;;;4722181;30;20075;-67
2022/05/07 09:25:31;;;;;;;25.00;13.45;;;23.00;92.10;;;;;;4721810;30;20425;-67
2022/05/07 09:27:57;;;;;;;24.30;13.77;;;22.00;92.20;;;;;;4752757;30;20048;-67
2022/05/07 09:30:30;;;;;;;25.50;13.88;;;21.20;93.00;;;;;;4752659;30;20455;-67
2022/05/07 09:32:56;;;;;;;22.40;13.90;;;21.80;93.40;;;;;;4736730;30;20063;-67
2022/05/07 09:35:47;;;;;;;24.85;13.70;;;21.70;93.10;;;;;;4752145;30;20201;-67
2022/05/07 09:38:15;;;;;;;22.33;13.30;;;21.30;93.40;;;;;;4736919;30;20064;-67
2022/05/07 09:40:43;;;;;;;19.23;12.80;;;21.60;84.30;;;;;;4752193;30;20064;-67
2022/05/07 09:43:10;;;;;;;25.38;13.27;;;21.50;85.20;;;;;;4736896;30;20405;-67
2022/05/07 09:45:37;;;;;;;22.92;13.15;;;;;;;;;;4752455;30;20096;-67
2022/05/07 09:48:07;;;;;;;21.10;12.85;;;21.40;94.80;;;;;;4752429;30;20056;-67
2022/05/07 09:58:41;;;;;;;;;;;20.90;89.80;;;;;;4739258;30;20055;-67
2022/05/07 10:01:25;;;;;;;23.13;13.07;;;20.90;96.10;;;;;;4752516;30;19922;-68
2022/05/07 10:04:06;;;;;;;25.08;12.63;;;20.60;96.00;;;;;;4736070;30;20092;-67
2022/05/07 10:06:46;;;;;;;29.50;13.50;;;20.70;95.80;;;;;;4752078;30;20052;-68
2022/05/07 10:09:23;;;;;;;20.90;12.57;;;20.60;96.10;;;;;;4752273;30;20079;-67
2022/05/07 10:11:56;;;;;;;27.33;12.85;;;21.10;95.50;;;;;;4752299;30;20095;-67
2022/05/07 10:14:26;;;;;;;21.02;13.20;;;20.90;95.20;;;;;;4751490;30;20114;-67
2022/05/07 10:17:04;;;;;;;26.25;13.27;;;20.90;94.60;;;;;;4751669;30;20125;-67
2022/05/07 10:19:42;;;;;;;22.40;12.80;;;21.20;94.20;;;;;;4751433;30;20182;-67
2022/05/07 10:22:21;;;;;;;18.88;13.15;;;21.30;93.40;;;;;;4752131;30;20053;-65
2022/05/07 10:24:49;;;;;;;22.38;13.23;;;21.40;93.50;;;;;;4736153;30;20056;-67
2022/05/07 10:27:20;;;;;;;20.40;12.65;;;21.20;83.70;;;;;;4751618;30;20083;-66
2022/05/07 10:29:47;;;;;;;22.75;12.45;;;;;;;;;;4736164;30;20056;-67
2022/05/07 10:32:18;;;;;;;25.85;12.98;;;20.70;93.20;;;;;;4735872;30;20227;-67
2022/05/07 10:34:54;;;;;;;24.20;13.00;;;20.90;93.10;;;;;;4735543;30;20059;-67
2022/05/07 10:37:20;;;;;;;22.23;13.00;;;21.30;93.90;;;;;;4735858;30;20088;-67
2022/05/07 10:39:52;;;;;;;21.65;12.70;;;21.60;93.50;;;;;;4751932;30;20048;-67
2022/05/07 10:42:19;;;;;;;22.08;12.32;;;21.30;85.50;;;;;;4751664;30;20053;-67
2022/05/07 10:44:46;;;;;;;18.52;12.55;;;21.30;93.80;;;;;;4751587;30;20223;-67
2022/05/07 10:47:13;;;;;;;20.70;12.55;;;21.30;93.50;;;;;;4735607;30;20441;-67
2022/05/07 10:49:49;;;;;;;21.70;12.05;;;22.20;94.00;;;;;;4751661;30;20056;-67
2022/05/07 10:52:15;;;;;;;21.02;12.13;;;22.10;93.90;;;;;;4748017;30;20056;-67
2022/05/07 10:54:41;;;;;;;20.67;13.05;;;21.20;92.70;;;;;;4751276;30;20064;-68
2022/05/07 10:57:06;;;;;;;23.08;13.27;;;21.50;93.80;;;;;;4751728;30;20064;-67
2022/05/07 10:59:33;;;;;;;23.00;13.57;;;21.20;93.40;;;;;;4751414;30;20162;-67
2022/05/07 11:02:07;;;;;;;23.25;13.68;;;21.10;88.70;;;;;;4750480;30;20064;-66
2022/05/07 11:04:44;;;;;;;24.08;13.93;;;21.10;94.40;;;;;;4750078;30;20509;-67
2022/05/07 11:07:10;;;;;;;27.45;15.25;;;20.90;94.90;;;;;;4765039;30;20106;-67
2022/05/07 11:09:37;;;;;;;24.23;14.65;;;21.30;96.00;;;;;;4751250;30;20048;-67
2022/05/07 11:12:04;;;;;;;25.35;14.98;;;21.20;95.70;;;;;;4750503;30;20063;-67
2022/05/07 11:14:37;;;;;;;27.50;15.48;;;21.10;96.80;;;;;;4750275;30;20413;-67
2022/05/07 11:17:06;;;;;;;24.00;16.20;;;21.20;91.30;;;;;;4751279;30;20129;-67
2022/05/07 11:19:34;;;;;;;26.05;16.10;;;21.10;96.40;;;;;;4751081;30;20117;-66
2022/05/07 11:22:01;;;;;;;26.70;16.45;;;21.00;96.40;;;;;;4750300;30;20477;-67
2022/05/07 11:24:28;;;;;;;22.75;16.63;;;21.40;96.20;;;;;;4735140;30;20071;-66
2022/05/07 11:26:58;;;;;;;26.90;17.80;;;21.40;96.20;;;;;;4751375;30;20123;-66
2022/05/07 11:29:25;;;;;;;22.30;15.38;;;21.40;95.50;;;;;;4753988;30;20585;-66
2022/05/07 11:32:01;;;;;;;26.58;15.48;;;21.70;92.80;;;;;;4754737;30;20131;-67
2022/05/07 11:34:34;;;;;;;21.45;15.35;;;21.70;93.90;;;;;;4754412;30;20073;-66
2022/05/07 11:37:19;;;;;;;22.70;15.63;;;21.50;93.60;;;;;;4754903;30;20052;-67
2022/05/07 11:39:53;;;;;;;22.05;15.13;;;21.30;93.20;;;;;;4752937;30;20121;-67
2022/05/07 11:45:25;;;;;;;23.48;15.35;;;21.80;93.10;;;;;;4753674;30;20063;-67
2022/05/07 11:45:37;;;;;;;23.30;15.63;;;21.30;93.30;;;;;;4738946;30;20066;-67
2022/05/07 11:48:09;;;;;;;23.85;14.13;;;21.80;93.20;;;;;;4753462;30;20409;-67
2022/05/07 11:50:59;;;;;;;21.55;13.85;;;21.50;92.30;;;;;;4754186;30;20051;-67
2022/05/07 11:53:30;;;;;;;22.50;13.88;;;21.50;83.30;;;;;;4738087;30;20513;-67
2022/05/07 11:56:09;;;;;;;21.13;13.98;;;21.60;84.60;;;;;;4738786;30;20052;-67
2022/05/07 11:58:42;;;;;;;20.50;14.73;;;22.70;93.00;;;;;;4754022;30;20052;-67
2022/05/07 12:01:28;;;;;;;22.35;14.70;;;21.90;92.40;;;;;;4738245;30;20382;-66
2022/05/07 12:03:54;;;;;;;18.05;14.25;;;21.80;90.90;;;;;;4738384;30;20625;-67
2022/05/07 12:06:29;;;;;;;21.23;13.98;;;21.90;91.00;;;;;;4738206;30;20095;-66
2022/05/07 12:08:55;;;;;;;;;;;21.90;81.00;;;;;;4738372;30;20135;-67
2022/05/07 12:11:21;;;;;;;18.73;12.70;;;;;;;;;;4754268;30;20337;-67
2022/05/07 12:13:47;;;;;;;19.83;12.93;;;21.90;90.70;;;;;;4753238;30;20501;-67
2022/05/07 12:18:58;;;;;;;19.13;12.85;;;;;;;;;;4738019;30;20059;-67
2022/05/07 12:29:50;;;;;;;16.48;10.88;;;22.50;87.30;;;;;;4753533;30;20052;-68
2022/05/07 12:32:17;;;;;;;16.42;10.82;;;22.00;85.70;;;;;;4753711;30;20493;-67
2022/05/07 12:34:43;;;;;;;17.58;10.73;;;22.50;85.00;;;;;;4751964;30;20121;-67
2022/05/07 12:37:09;;;;;;;20.75;11.45;;;22.50;78.40;;;;;;4737903;30;20064;-67
2022/05/07 12:39:34;;;;;;;15.48;11.55;;;23.30;83.70;;;;;;4752879;30;20060;-68
2022/05/07 12:42:08;;;;;;;23.52;12.20;;;21.80;81.80;;;;;;4737414;30;20067;-67
2022/05/07 12:47:09;;;;;;;16.40;12.45;;;22.60;83.90;;;;;;5070639;24;20051;-60
2022/05/07 12:49:36;;;;;;;18.27;13.27;;;;;;;;;;4781698;30;20116;-61
2022/05/07 12:52:06;;;;;;;19.92;13.20;;;21.70;84.50;;;;;;4781888;30;20095;-61
2022/05/07 12:54:32;;;;;;;17.88;12.80;;;21.80;84.90;;;;;;4781089;30;20105;-61
2022/05/07 12:56:58;;;;;;;15.65;12.02;;;21.70;87.50;;;;;;4781276;30;20047;-61
2022/05/07 12:59:24;;;;;;;19.50;12.88;;;21.70;86.50;;;;;;4780286;30;20341;-61
2022/05/07 13:01:50;;;;;;;18.42;12.48;;;21.60;86.10;;;;;;4780569;30;20047;-58
2022/05/07 13:04:15;;;;;;;19.02;12.70;;;21.60;87.10;;;;;;4780280;30;20055;-57
2022/05/07 13:06:41;;;;;;;17.75;11.90;;;21.40;86.50;;;;;;4781028;30;20054;-57
2022/05/07 13:09:07;;;;;;;18.77;12.35;;;21.50;88.10;;;;;;4781284;30;20047;-57
2022/05/07 13:11:34;;;;;;;22.73;13.40;;;21.60;90.00;;;;;;4764824;30;20054;-60
2022/05/07 13:14:00;;;;;;;21.05;14.80;;;21.70;90.40;;;;;;4781434;30;20044;-61
2022/05/07 13:16:26;;;;;;;26.77;14.23;;;22.00;90.10;;;;;;4781058;30;20341;-61
2022/05/07 13:18:51;;;;;;;23.73;14.50;;;21.90;88.20;;;;;;4780168;30;20051;-62